Time;durP1;ratioP1;P1;durP2;ratioP2;P2;SDS_P1;SDS_P2;PMS_P1;PMS_P2;Temp;Humidity;BMP_temperature;BMP_pressure;BME280_temperature;BME280_humidity;BME280_pressure;Samples;Min_cycle;Max_cycle;Signal;HPM_P1;HPM_P2
2022/05/09 00:01:19;;;;;;;47.43;19.27;;;;;;;13.12;59.67;95188.81;5131259;27;20191;-81
2022/05/09 00:03:48;;;;;;;57.47;23.50;;;;;;;13.01;59.89;95187.72;5125273;27;20889;-78
2022/05/09 00:06:18;;;;;;;98.60;46.23;;;;;;;12.92;59.87;95187.22;5128915;27;20212;-79
2022/05/09 00:08:46;;;;;;;149.93;79.03;;;;;;;12.85;59.60;95183.88;5134442;27;20305;-78
2022/05/09 00:11:14;;;;;;;180.23;98.73;;;;;;;12.82;59.98;95192.13;5129256;27;20191;-78
2022/05/09 00:13:42;;;;;;;195.67;113.37;;;;;;;12.81;59.91;95192.38;5128245;27;20196;-79
2022/05/09 00:16:10;;;;;;;173.17;100.10;;;;;;;12.73;59.37;95190.03;5128583;27;20283;-80
2022/05/09 00:18:39;;;;;;;142.47;85.10;;;;;;;12.68;59.23;95195.09;5130458;27;20217;-80
2022/05/09 00:21:07;;;;;;;112.63;66.00;;;;;;;12.62;59.36;95196.78;5121013;27;20631;-78
2022/05/09 00:23:37;;;;;;;148.47;86.63;;;;;;;12.07;63.13;95185.47;5130701;27;20276;-78
2022/05/09 00:26:05;;;;;;;182.17;94.70;;;;;;;11.55;66.00;95197.06;5124324;27;20194;-79
2022/05/09 00:28:33;;;;;;;167.37;86.17;;;;;;;11.28;68.46;95199.00;5129844;27;20223;-79
2022/05/09 00:31:02;;;;;;;122.43;63.50;;;;;;;11.33;68.95;95203.59;5126565;27;20271;-80
2022/05/09 00:33:30;;;;;;;92.93;48.30;;;;;;;11.42;67.77;95193.75;5128224;27;20558;-80
2022/05/09 00:35:59;;;;;;;69.60;35.30;;;;;;;11.57;67.17;95205.44;5127549;27;20199;-78
2022/05/09 00:38:28;;;;;;;49.93;25.23;;;;;;;11.72;66.79;95207.78;5126511;27;20215;-78
2022/05/09 00:43:44;;;;;;;27.13;12.70;;;;;;;11.91;64.67;95205.06;5130907;27;20194;-79
2022/05/09 00:46:13;;;;;;;43.93;21.90;;;;;;;11.96;64.65;95201.81;5124681;27;20268;-79
2022/05/09 00:48:41;;;;;;;35.33;16.37;;;;;;;12.01;64.51;95207.16;5128309;27;20194;-79
2022/05/09 00:51:10;;;;;;;27.53;13.47;;;;;;;12.01;64.32;95209.78;5125039;27;20381;-78
2022/05/09 00:53:39;;;;;;;25.87;11.47;;;;;;;12.03;63.99;95209.56;5128124;27;20196;-77
2022/05/09 00:56:15;;;;;;;22.37;10.33;;;;;;;12.00;64.21;95212.59;5124810;27;20226;-78
2022/05/09 00:58:46;;;;;;;30.13;13.70;;;;;;;11.97;64.27;95211.22;5126399;27;20581;-77
2022/05/09 01:01:16;;;;;;;44.83;19.23;;;;;;;11.90;64.49;95211.25;5126329;27;20191;-81
2022/05/09 01:03:49;;;;;;;33.93;17.77;;;;;;;11.90;64.60;95205.25;5130292;27;20559;-81
2022/05/09 01:06:17;;;;;;;35.33;18.13;;;;;;;11.88;64.98;95212.50;5131231;27;20199;-81
2022/05/09 01:08:48;;;;;;;52.47;21.27;;;;;;;11.86;63.31;95215.28;5135036;27;20194;-80
2022/05/09 01:11:23;;;;;;;50.10;21.63;;;;;;;11.80;63.13;95210.91;5132031;27;20677;-80
2022/05/09 01:13:56;;;;;;;52.27;18.50;;;;;;;11.76;63.41;95208.97;5132477;27;20317;-78
2022/05/09 01:16:24;;;;;;;30.33;12.97;;;;;;;11.51;64.43;95201.09;5124381;27;20206;-80
2022/05/09 01:18:52;;;;;;;29.13;13.27;;;;;;;11.31;65.64;95206.41;5127895;27;20219;-79
2022/05/09 01:21:40;;;;;;;26.63;12.00;;;;;;;11.29;65.96;95207.63;5128377;27;20199;-79
2022/05/09 01:24:17;;;;;;;29.27;14.53;;;;;;;11.33;66.70;95207.00;5134651;27;20712;-80
2022/05/09 01:26:46;;;;;;;33.13;15.70;;;;;;;11.38;67.37;95206.38;5137917;27;20193;-79
2022/05/09 01:29:21;;;;;;;39.90;17.00;;;;;;;11.32;67.97;95209.81;5133625;27;20585;-79
2022/05/09 01:31:52;;;;;;;35.37;16.90;;;;;;;11.27;68.55;95210.44;5131220;27;20232;-79
2022/05/09 01:34:21;;;;;;;36.60;16.43;;;;;;;11.20;68.92;95199.25;5136048;27;20625;-80
2022/05/09 01:36:56;;;;;;;37.53;15.60;;;;;;;11.22;69.71;95212.88;5132671;27;20202;-80
2022/05/09 01:39:24;;;;;;;25.90;13.23;;;;;;;11.21;69.59;95210.47;5134594;27;20692;-80
2022/05/09 01:41:52;;;;;;;25.27;12.87;;;;;;;11.21;69.54;95215.66;5139099;27;20203;-80
2022/05/09 01:44:21;;;;;;;24.40;11.80;;;;;;;11.18;69.79;95211.69;5129730;27;20301;-80
2022/05/09 01:49:37;;;;;;;17.53;9.47;;;;;;;11.12;69.92;95212.50;5131760;27;20316;-79
2022/05/09 01:52:09;;;;;;;22.63;7.50;;;;;;;11.10;68.67;95211.91;5124140;27;20278;-79
2022/05/09 01:54:40;;;;;;;19.57;8.67;;;;;;;11.11;68.68;95205.69;5129198;27;20192;-79
2022/05/09 01:57:08;;;;;;;15.33;7.70;;;;;;;11.06;69.05;95207.31;5135171;27;20196;-79
2022/05/09 01:59:36;;;;;;;12.43;7.50;;;;;;;10.49;72.49;95208.91;5134819;27;20641;-79
2022/05/09 02:02:10;;;;;;;13.57;8.63;;;;;;;10.15;75.07;95209.19;5132641;27;20623;-79
2022/05/09 02:04:40;;;;;;;26.77;8.87;;;;;;;9.85;80.37;95203.56;5131991;27;20219;-79
2022/05/09 02:07:11;;;;;;;17.97;9.70;;;;;;;9.85;80.03;95211.34;5131223;27;20299;-80
2022/05/09 02:09:41;;;;;;;18.93;9.30;;;;;;;9.93;79.68;95205.94;5134401;27;20191;-79
2022/05/09 02:12:12;;;;;;;23.27;9.00;;;;;;;10.05;79.33;95217.34;5132626;27;20237;-79
2022/05/09 02:14:41;;;;;;;19.83;8.97;;;;;;;10.22;78.07;95218.53;5130267;27;20231;-82
2022/05/09 02:17:09;;;;;;;16.63;9.07;;;;;;;10.29;77.46;95215.16;5136169;27;20264;-82
2022/05/09 02:19:38;;;;;;;21.47;8.90;;;;;;;10.33;78.03;95216.34;5135454;27;20229;-82
2022/05/09 02:22:08;;;;;;;17.53;8.27;;;;;;;10.36;77.83;95219.31;5133636;27;20912;-80
2022/05/09 02:24:39;;;;;;;23.03;8.73;;;;;;;10.38;77.29;95219.13;5134326;27;20207;-80
2022/05/09 02:27:07;;;;;;;14.80;6.30;;;;;;;10.35;76.15;95224.72;5139229;27;20194;-81
2022/05/09 02:29:37;;;;;;;12.10;5.87;;;;;;;10.33;73.53;95216.34;5132466;27;20190;-80
2022/05/09 02:32:07;;;;;;;13.13;6.50;;;;;;;10.27;72.81;95224.94;5132470;27;20199;-81
2022/05/09 02:34:36;;;;;;;16.53;5.73;;;;;;;10.29;72.65;95222.94;5130225;27;20192;-81
2022/05/09 02:37:05;;;;;;;12.87;6.43;;;;;;;10.31;73.30;95223.53;5140389;27;20199;-80
2022/05/09 02:39:33;;;;;;;10.90;5.10;;;;;;;10.30;72.29;95229.75;5126359;27;20770;-79
2022/05/09 02:42:03;;;;;;;13.53;6.50;;;;;;;10.15;73.16;95212.56;5132680;27;20943;-79
2022/05/09 02:44:32;;;;;;;12.73;6.40;;;;;;;10.09;75.54;95207.34;5129518;27;20604;-80
2022/05/09 02:47:00;;;;;;;12.53;6.23;;;;;;;10.19;75.37;95226.75;5130003;27;20707;-79
2022/05/09 02:49:29;;;;;;;13.07;7.17;;;;;;;10.18;75.45;95221.75;5131125;27;20187;-81
2022/05/09 02:51:57;;;;;;;17.30;6.40;;;;;;;10.27;75.33;95232.75;5134302;27;20227;-79
2022/05/09 02:54:25;;;;;;;13.03;6.20;;;;;;;10.18;75.30;95227.75;5125848;27;20195;-79
2022/05/09 02:56:54;;;;;;;12.53;6.63;;;;;;;10.17;75.17;95227.94;5130960;27;20306;-79
2022/05/09 02:59:23;;;;;;;13.53;6.30;;;;;;;10.15;76.15;95233.34;5137704;27;20223;-80
2022/05/09 03:01:52;;;;;;;9.97;6.50;;;;;;;10.19;76.70;95237.13;5133275;27;20187;-80
2022/05/09 03:07:06;;;;;;;13.27;6.30;;;;;;;10.18;75.84;95234.75;5130902;27;20186;-79
2022/05/09 03:09:35;;;;;;;16.57;7.50;;;;;;;10.19;74.23;95234.53;5133439;27;20203;-78
2022/05/09 03:12:04;;;;;;;20.20;7.50;;;;;;;10.24;74.82;95236.53;5133853;27;20616;-80
2022/05/09 03:14:33;;;;;;;14.20;6.23;;;;;;;10.17;74.93;95241.72;5131110;27;20269;-79
2022/05/09 03:17:02;;;;;;;18.13;8.27;;;;;;;10.12;75.68;95243.31;5133635;27;20247;-78
2022/05/09 03:19:31;;;;;;;21.90;10.80;;;;;;;9.84;77.40;95238.28;5127392;27;20690;-78
2022/05/09 03:21:59;;;;;;;29.40;11.70;;;;;;;9.94;77.47;95250.88;5130863;27;20238;-78
2022/05/09 03:24:29;;;;;;;17.83;8.83;;;;;;;9.88;75.62;95243.88;5134009;27;20188;-80
2022/05/09 03:26:59;;;;;;;21.20;8.27;;;;;;;9.75;74.57;95252.47;5126894;27;20642;-78
2022/05/09 03:29:28;;;;;;;22.50;10.20;;;;;;;9.78;74.80;95253.88;5131579;27;20188;-80
2022/05/09 03:31:58;;;;;;;19.37;9.47;;;;;;;9.39;77.56;95257.16;5128905;27;20192;-81
2022/05/09 03:34:27;;;;;;;23.20;8.93;;;;;;;9.02;78.74;95261.03;5125892;27;20197;-72
2022/05/09 03:36:56;;;;;;;30.30;10.07;;;;;;;8.67;83.94;95260.25;5129837;27;20571;-73
2022/05/09 03:39:24;;;;;;;43.67;11.87;;;;;;;8.73;87.00;95264.69;5125122;27;20211;-73
2022/05/09 03:41:52;;;;;;;24.97;12.20;;;;;;;8.88;86.38;95261.97;5129961;27;20233;-73
2022/05/09 03:44:20;;;;;;;33.10;11.83;;;;;;;9.00;85.87;95258.63;5128997;27;20195;-73
2022/05/09 03:46:47;;;;;;;24.67;10.87;;;;;;;9.23;84.77;95260.13;5129864;27;20676;-73
2022/05/09 03:49:16;;;;;;;21.43;10.73;;;;;;;9.35;83.11;95254.16;5125131;27;20182;-72
2022/05/09 03:51:45;;;;;;;23.53;10.17;;;;;;;9.42;81.65;95255.00;5127722;27;20260;-73
2022/05/09 03:54:13;;;;;;;26.03;9.20;;;;;;;9.58;80.19;95256.44;5122832;27;20676;-73
2022/05/09 03:56:41;;;;;;;18.43;7.47;;;;;;;9.68;78.46;95254.25;5123738;27;20203;-72
2022/05/09 03:59:09;;;;;;;12.90;6.80;;;;;;;9.79;76.48;95263.25;5127676;27;20245;-73
2022/05/09 04:01:37;;;;;;;14.43;7.37;;;;;;;9.87;75.67;95261.25;5126765;27;20191;-73
2022/05/09 04:04:06;;;;;;;13.47;6.63;;;;;;;9.77;75.64;95247.06;5093751;27;21005;-73
2022/05/09 04:06:36;;;;;;;17.47;7.97;;;;;;;9.88;75.70;95268.06;5123489;27;20198;-72
2022/05/09 04:09:05;;;;;;;13.97;6.83;;;;;;;9.90;75.81;95258.25;5122407;27;20195;-74
2022/05/09 04:11:33;;;;;;;17.87;7.27;;;;;;;9.99;76.46;95264.06;5121951;27;20202;-73
2022/05/09 04:14:00;;;;;;;14.90;7.40;;;;;;;10.07;75.47;95264.66;5121123;27;20202;-73
2022/05/09 04:19:14;;;;;;;13.30;6.70;;;;;;;10.15;76.37;95267.13;5121207;27;20255;-72
2022/05/09 04:21:43;;;;;;;21.27;7.40;;;;;;;10.22;75.27;95267.09;5118047;27;20219;-72
2022/05/09 04:24:11;;;;;;;19.90;10.90;;;;;;;10.33;74.25;95265.72;5120934;27;20196;-73
2022/05/09 04:26:40;;;;;;;17.00;8.10;;;;;;;10.33;74.34;95265.72;5120736;27;20199;-73
2022/05/09 04:29:08;;;;;;;13.57;6.90;;;;;;;10.41;73.21;95270.69;5122969;27;20247;-73
2022/05/09 04:31:36;;;;;;;21.00;8.30;;;;;;;10.45;72.89;95274.47;5120903;27;20211;-74
2022/05/09 04:34:04;;;;;;;43.50;10.63;;;;;;;10.45;74.37;95272.69;5120759;27;20202;-74
2022/05/09 04:36:32;;;;;;;32.10;12.40;;;;;;;10.52;74.33;95278.69;5122772;27;20653;-74
2022/05/09 04:39:01;;;;;;;39.63;17.00;;;;;;;10.62;75.09;95271.25;5120237;27;20219;-73
2022/05/09 04:41:30;;;;;;;48.33;18.60;;;;;;;10.68;75.57;95280.03;5122838;27;20274;-74
2022/05/09 04:43:58;;;;;;;40.67;16.07;;;;;;;10.70;75.46;95267.66;5121788;27;20203;-73
2022/05/09 04:46:25;;;;;;;36.13;14.03;;;;;;;10.86;75.23;95282.81;5121607;27;20192;-73
2022/05/09 04:48:54;;;;;;;30.53;12.30;;;;;;;10.95;74.67;95284.19;5118605;27;20230;-74
2022/05/09 04:51:22;;;;;;;24.97;11.57;;;;;;;10.98;75.50;95280.38;5122155;27;20191;-72
2022/05/09 04:53:50;;;;;;;25.17;11.03;;;;;;;11.07;74.32;95279.16;5121441;27;20206;-73
2022/05/09 04:56:20;;;;;;;24.60;10.87;;;;;;;11.16;74.20;95289.16;5119579;27;20199;-74
2022/05/09 04:58:48;;;;;;;24.63;9.73;;;;;;;11.19;74.38;95288.72;5119533;27;20225;-73
2022/05/09 05:01:16;;;;;;;16.60;8.57;;;;;;;11.11;73.56;95278.53;5119320;27;20666;-73
2022/05/09 05:03:44;;;;;;;19.70;9.10;;;;;;;10.88;75.00;95288.59;5120826;28;20195;-81
2022/05/09 05:06:11;;;;;;;16.93;8.60;;;;;;;10.63;75.23;95290.25;5122369;27;20203;-72
2022/05/09 05:08:38;;;;;;;41.90;8.80;;;;;;;10.40;80.27;95284.69;5121334;28;20252;-73
2022/05/09 05:11:06;;;;;;;19.23;8.20;;;;;;;10.54;78.83;95286.25;5119341;28;20210;-73
2022/05/09 05:13:36;;;;;;;15.93;8.00;;;;;;;10.68;78.40;95282.63;5121113;28;20276;-72
2022/05/09 05:16:03;;;;;;;17.03;7.83;;;;;;;10.76;77.14;95290.25;5119716;28;20199;-74
2022/05/09 05:18:32;;;;;;;18.13;8.00;;;;;;;10.90;76.94;95286.63;5119947;28;20196;-75
2022/05/09 05:21:10;;;;;;;22.20;8.47;;;;;;;11.03;77.54;95283.16;5120868;27;20677;-73
2022/05/09 05:23:38;;;;;;;17.67;9.50;;;;;;;11.06;76.37;95286.16;5120879;28;20199;-74
2022/05/09 05:26:07;;;;;;;23.53;9.53;;;;;;;11.19;74.77;95293.13;5118166;28;20203;-75
2022/05/09 05:28:37;;;;;;;21.47;9.43;;;;;;;11.32;74.05;95293.06;5120210;28;20582;-74
2022/05/09 05:31:15;;;;;;;21.53;10.10;;;;;;;11.45;73.72;95287.81;5120357;28;20659;-73
2022/05/09 05:33:45;;;;;;;18.50;9.27;;;;;;;11.59;72.67;95280.75;5120828;28;20222;-74
2022/05/09 05:36:15;;;;;;;21.80;10.13;;;;;;;11.63;72.80;95274.91;5120097;27;20661;-74
2022/05/09 05:38:46;;;;;;;25.70;10.53;;;;;;;11.74;71.26;95276.91;5120013;28;20192;-74
2022/05/09 05:41:16;;;;;;;19.13;9.57;;;;;;;11.87;71.58;95266.38;5120403;28;20288;-75
2022/05/09 05:43:46;;;;;;;22.43;9.70;;;;;;;12.01;70.49;95289.72;5120254;28;20321;-73
2022/05/09 05:46:15;;;;;;;24.77;9.73;;;;;;;11.98;70.21;95285.75;5119385;28;20583;-73
2022/05/09 05:48:43;;;;;;;23.97;9.60;;;;;;;12.03;69.79;95280.72;5118350;28;20200;-75
2022/05/09 05:51:14;;;;;;;19.73;9.67;;;;;;;12.12;69.22;95286.47;5117725;28;20290;-74
2022/05/09 05:53:42;;;;;;;18.33;9.37;;;;;;;12.25;68.18;95281.16;5120443;27;20771;-73
2022/05/09 05:56:10;;;;;;;29.13;9.47;;;;;;;12.31;67.58;95285.50;5120434;27;20217;-73
2022/05/09 05:58:38;;;;;;;23.70;10.00;;;;;;;12.36;67.70;95286.47;5117443;28;20710;-73
2022/05/09 06:01:08;;;;;;;22.00;9.87;;;;;;;12.38;67.03;95284.44;5120430;28;20224;-74
2022/05/09 06:03:36;;;;;;;22.87;9.30;;;;;;;12.42;67.25;95282.19;5120894;28;20347;-73
2022/05/09 06:06:04;;;;;;;15.40;9.50;;;;;;;12.46;66.45;95278.16;5117371;28;20192;-73
2022/05/09 06:08:31;;;;;;;19.43;9.10;;;;;;;12.58;66.07;95283.50;5121275;27;20192;-72
2022/05/09 06:11:00;;;;;;;15.10;9.20;;;;;;;12.61;65.03;95283.84;5123373;27;20677;-72
2022/05/09 06:13:27;;;;;;;17.47;9.67;;;;;;;12.56;65.30;95281.06;5124917;27;20237;-72
2022/05/09 06:15:55;;;;;;;18.53;9.33;;;;;;;12.63;64.92;95284.44;5121294;27;20257;-72
2022/05/09 06:18:24;;;;;;;23.43;8.80;;;;;;;12.68;64.05;95287.19;5121692;27;20633;-72
2022/05/09 06:20:52;;;;;;;16.90;8.77;;;;;;;12.75;63.43;95285.34;5126149;27;20283;-73
2022/05/09 06:23:20;;;;;;;20.83;9.13;;;;;;;12.88;62.49;95293.00;5123416;27;20722;-74
2022/05/09 06:25:48;;;;;;;20.37;10.20;;;;;;;12.86;62.74;95279.41;5125374;27;20219;-72
2022/05/09 06:28:18;;;;;;;23.03;10.53;;;;;;;12.95;62.76;95291.16;5125091;27;20603;-75
2022/05/09 06:30:46;;;;;;;22.03;11.00;;;;;;;12.72;63.39;95287.56;5123520;27;20192;-74
2022/05/09 06:33:14;;;;;;;20.23;10.13;;;;;;;12.58;64.08;95286.91;5112163;27;20206;-71
2022/05/09 06:35:46;;;;;;;23.63;10.00;;;;;;;12.65;64.59;95279.78;5121659;27;20247;-73
2022/05/09 06:38:15;;;;;;;17.93;10.17;;;;;;;12.76;65.04;95283.50;5126171;27;20200;-77
2022/05/09 06:40:43;;;;;;;21.80;9.63;;;;;;;12.94;64.40;95284.31;5122976;27;20272;-78
2022/05/09 06:43:11;;;;;;;16.07;9.83;;;;;;;13.14;63.96;95285.94;5122901;27;20188;-78
2022/05/09 06:45:39;;;;;;;22.30;9.80;;;;;;;13.36;63.45;95279.28;5125754;27;20676;-80
2022/05/09 06:48:08;;;;;;;25.60;11.17;;;;;;;13.48;62.28;95283.53;5123655;27;20210;-79
2022/05/09 06:50:37;;;;;;;31.00;10.77;;;;;;;13.73;61.71;95285.25;5116680;27;20256;-80
2022/05/09 06:53:07;;;;;;;19.80;10.57;;;;;;;13.89;60.71;95279.38;5124801;27;20253;-80
2022/05/09 06:55:36;;;;;;;16.27;10.10;;;;;;;14.08;59.70;95278.31;5134340;27;20219;-81
2022/05/09 06:58:07;;;;;;;17.50;10.30;;;;;;;14.10;59.17;95268.41;5133855;27;20200;-81
2022/05/09 07:00:35;;;;;;;17.70;10.37;;;;;;;14.23;58.82;95282.06;5133868;27;20719;-80
2022/05/09 07:03:03;;;;;;;30.10;10.67;;;;;;;14.38;58.70;95270.41;5133954;27;20196;-81
2022/05/09 07:05:31;;;;;;;21.20;10.93;;;;;;;14.51;58.66;95275.44;5133704;27;20673;-81
2022/05/09 07:07:58;;;;;;;18.90;11.17;;;;;;;14.65;58.11;95272.38;5147238;27;20212;-81
2022/05/09 07:10:28;;;;;;;23.73;10.53;;;;;;;14.60;58.22;95258.41;5129964;27;20197;-84
2022/05/09 07:12:58;;;;;;;18.80;11.03;;;;;;;14.84;58.38;95273.06;5118343;27;20278;-80
2022/05/09 07:15:29;;;;;;;21.90;10.13;;;;;;;14.94;57.55;95275.91;5127218;27;20200;-82
2022/05/09 07:17:58;;;;;;;22.37;10.53;;;;;;;15.04;57.37;95272.69;5127488;27;20188;-79
2022/05/09 07:20:27;;;;;;;22.20;10.40;;;;;;;15.12;56.39;95269.72;5123131;27;20217;-77
2022/05/09 07:22:56;;;;;;;17.37;9.67;;;;;;;15.28;55.59;95272.44;5123339;27;20282;-77
2022/05/09 07:25:26;;;;;;;19.00;9.10;;;;;;;15.40;54.25;95275.03;5122704;27;20206;-80
2022/05/09 07:27:56;;;;;;;20.13;9.33;;;;;;;15.49;54.04;95278.09;5120941;27;20227;-80
2022/05/09 07:30:25;;;;;;;15.63;8.80;;;;;;;15.57;53.97;95275.09;5120759;27;20196;-80
2022/05/09 07:32:54;;;;;;;20.30;9.30;;;;;;;15.58;53.31;95274.09;5123527;27;20203;-80
2022/05/09 07:35:23;;;;;;;18.17;9.17;;;;;;;15.67;52.90;95262.97;5121299;27;20200;-79
2022/05/09 07:37:51;;;;;;;19.37;9.03;;;;;;;15.79;52.30;95268.97;5123290;27;20196;-78
2022/05/09 07:40:20;;;;;;;17.27;8.40;;;;;;;15.88;52.01;95264.94;5124925;27;20263;-78
2022/05/09 07:42:49;;;;;;;15.97;8.73;;;;;;;16.01;51.85;95270.94;5124699;27;20203;-77
2022/05/09 07:45:20;;;;;;;22.97;8.83;;;;;;;16.11;51.94;95261.41;5125475;27;20195;-78
2022/05/09 07:47:47;;;;;;;20.83;8.67;;;;;;;16.22;51.89;95270.25;5123529;27;20677;-79
2022/05/09 07:50:18;;;;;;;12.93;7.37;;;;;;;16.24;50.49;95268.97;5125092;27;20867;-78
2022/05/09 07:52:46;;;;;;;16.03;6.87;;;;;;;16.27;49.40;95268.50;5121309;27;20300;-78
2022/05/09 07:55:16;;;;;;;14.07;7.13;;;;;;;16.35;49.19;95273.34;5125259;27;20195;-77
2022/05/09 07:57:45;;;;;;;18.03;8.03;;;;;;;16.51;48.96;95266.50;5122040;27;20290;-77
2022/05/09 08:00:14;;;;;;;17.77;7.60;;;;;;;16.61;49.68;95273.78;5120875;27;20325;-77
2022/05/09 08:02:44;;;;;;;16.27;6.37;;;;;;;16.66;48.48;95266.78;5121586;27;20533;-85
2022/05/09 08:05:12;;;;;;;14.23;6.90;;;;;;;16.83;48.95;95275.41;5130946;27;20241;-76
2022/05/09 08:07:39;;;;;;;15.13;6.33;;;;;;;16.90;49.00;95275.25;5127092;27;20208;-76
2022/05/09 08:10:09;;;;;;;11.17;5.60;;;;;;;17.06;48.50;95261.28;5114981;27;20686;-77
2022/05/09 08:12:38;;;;;;;9.00;5.40;;;;;;;17.21;49.51;95271.19;5123683;27;20253;-77
2022/05/09 08:15:09;;;;;;;9.73;5.20;;;;;;;17.36;48.42;95266.13;5125095;27;20188;-79
2022/05/09 08:17:36;;;;;;;8.40;4.93;;;;;;;17.45;47.72;95273.34;5124563;27;20187;-77
2022/05/09 08:20:08;;;;;;;11.87;4.63;;;;;;;17.60;47.28;95269.34;5127439;27;20230;-77
2022/05/09 08:22:36;;;;;;;10.83;4.37;;;;;;;17.72;46.37;95267.38;5120284;27;20301;-77
2022/05/09 08:25:06;;;;;;;13.10;4.43;;;;;;;17.82;44.49;95265.66;5121890;27;20194;-78
2022/05/09 08:27:34;;;;;;;11.17;4.47;;;;;;;17.87;44.93;95270.16;5120218;27;20226;-77
2022/05/09 08:30:01;;;;;;;11.70;5.60;;;;;;;17.95;44.41;95273.13;5128545;27;20618;-79
2022/05/09 08:32:30;;;;;;;15.60;6.43;;;;;;;18.00;43.98;95265.31;5122468;27;20199;-79
2022/05/09 08:34:58;;;;;;;24.03;10.27;;;;;;;18.12;43.39;95270.41;5119323;27;20254;-82
2022/05/09 08:37:27;;;;;;;13.75;5.88;;;;;;;18.21;41.24;95270.75;5123967;27;20650;-81
2022/05/09 08:39:55;;;;;;;14.15;5.78;;;;;;;18.29;39.91;95265.84;5122665;27;20191;-81
2022/05/09 08:42:24;;;;;;;10.52;4.95;;;;;;;18.36;39.24;95260.34;5125040;27;20238;-83
2022/05/09 08:45:09;;;;;;;10.45;4.10;;;;;;;18.52;39.57;95264.72;5123678;27;20204;-82
2022/05/09 08:48:10;;;;;;;7.32;3.95;;;;;;;18.63;39.95;95264.56;5125387;27;20183;-80
2022/05/09 08:50:50;;;;;;;13.27;3.70;;;;;;;18.79;37.90;95267.28;5129221;27;20188;-81
2022/05/09 08:53:24;;;;;;;7.63;3.30;;;;;;;18.90;36.54;95266.31;5134776;27;20251;-84
2022/05/09 08:55:53;;;;;;;9.07;3.40;;;;;;;19.00;38.37;95266.34;5123848;27;20203;-85
2022/05/09 08:58:37;;;;;;;6.10;3.67;;;;;;;19.17;38.39;95272.25;5124752;27;20291;-82
2022/05/09 09:01:11;;;;;;;10.82;3.67;;;;;;;19.22;37.32;95275.69;5123007;27;20211;-77
2022/05/09 09:03:43;;;;;;;12.10;3.13;;;;;;;19.32;36.09;95261.78;5120107;27;20203;-78
2022/05/09 09:06:22;;;;;;;5.50;3.00;;;;;;;19.43;35.53;95270.56;5122696;27;20246;-74
2022/05/09 09:09:06;;;;;;;5.07;3.10;;;;;;;19.51;35.67;95259.53;5121829;27;20265;-73
2022/05/09 09:11:44;;;;;;;11.55;3.50;;;;;;;19.61;35.83;95260.34;5120832;28;20563;-73
2022/05/09 09:14:24;;;;;;;10.52;3.28;;;;;;;19.73;35.37;95260.13;5122054;28;20193;-74
2022/05/09 09:17:10;;;;;;;13.68;3.30;;;;;;;19.92;35.44;95260.41;5119701;28;20291;-73
2022/05/09 09:19:57;;;;;;;6.13;3.25;;;;;;;20.08;35.30;95260.19;5119438;28;20720;-74
2022/05/09 09:22:41;;;;;;;11.45;2.95;;;;;;;20.28;30.83;95254.97;5121352;27;20192;-73
2022/05/09 09:25:42;;;;;;;6.10;2.60;;;;;;;20.40;29.27;95256.56;5122778;27;20198;-74
2022/05/09 09:28:15;;;;;;;8.25;2.75;;;;;;;20.46;30.39;95263.44;5119808;28;20226;-74
2022/05/09 09:30:46;;;;;;;25.77;4.40;;;;;;;20.52;30.63;95255.22;5119320;28;20265;-74
2022/05/09 09:33:19;;;;;;;12.93;2.78;;;;;;;20.69;27.42;95253.09;5121141;28;20199;-74
2022/05/09 09:35:55;;;;;;;7.38;2.60;;;;;;;20.84;24.42;95254.94;5121273;28;20386;-73
2022/05/09 09:38:40;;;;;;;3.63;2.38;;;;;;;20.92;25.31;95247.25;5123407;27;20230;-80
2022/05/09 09:41:21;;;;;;;7.00;2.55;;;;;;;21.09;27.11;95246.19;5119454;27;20295;-77
2022/05/09 09:43:50;;;;;;;7.20;2.17;;;;;;;21.15;26.13;95245.13;5120443;27;20287;-80
2022/05/09 09:46:19;;;;;;;5.15;2.42;;;;;;;21.30;25.63;95243.22;5123853;27;20267;-78
2022/05/09 09:48:59;;;;;;;5.53;2.45;;;;;;;21.39;25.03;95236.31;5125816;27;20587;-80
2022/05/09 09:51:27;;;;;;;4.57;2.35;;;;;;;21.55;25.79;95241.53;5123346;27;20248;-77
2022/05/09 09:54:02;;;;;;;24.55;4.18;;;;;;;21.69;27.07;95226.66;5123045;27;20661;-77
2022/05/09 09:56:34;;;;;;;12.38;3.15;;;;;;;21.92;27.68;95233.97;5119070;27;20190;-76
2022/05/09 09:59:21;;;;;;;8.02;2.58;;;;;;;21.99;25.84;95235.22;5126511;27;20203;-78
2022/05/09 10:02:09;;;;;;;8.10;2.50;;;;;;;22.09;24.78;95229.06;5122461;27;20681;-78
2022/05/09 10:04:36;;;;;;;7.65;2.65;;;;;;;22.21;24.50;95236.69;5120944;27;20286;-76
2022/05/09 10:07:08;;;;;;;4.50;2.30;;;;;;;22.34;25.14;95233.38;5128738;27;20196;-77
2022/05/09 10:09:41;;;;;;;8.70;2.65;;;;;;;22.57;25.70;95230.81;5126096;27;20198;-77
2022/05/09 10:12:22;;;;;;;9.88;2.65;;;;;;;22.81;24.50;95230.91;5123047;27;20300;-76
2022/05/09 10:14:50;;;;;;;4.93;2.20;;;;;;;23.00;25.22;95225.69;5126698;27;20231;-77
2022/05/09 10:17:28;;;;;;;4.47;2.38;;;;;;;23.17;24.37;95244.59;5123208;27;20191;-77
2022/05/09 10:19:59;;;;;;;11.88;2.70;;;;;;;23.25;24.50;95236.00;5125027;27;20191;-77
2022/05/09 10:25:19;;;;;;;17.15;2.80;;;;;;;23.67;25.01;95241.34;5122620;27;20186;-77
2022/05/09 10:28:07;;;;;;;9.60;2.55;;;;;;;23.86;24.33;95237.94;5120459;27;20234;-77
2022/05/09 10:30:37;;;;;;;10.27;2.50;;;;;;;24.04;23.56;95229.97;5123529;27;20196;-77
2022/05/09 10:33:13;;;;;;;13.18;3.42;;;;;;;24.26;23.06;95234.72;5125204;27;20195;-77
2022/05/09 10:35:47;;;;;;;2.38;1.88;;;;;;;24.52;20.57;95230.59;5122776;27;20191;-76
2022/05/09 10:38:19;;;;;;;9.88;2.10;;;;;;;24.74;21.04;95232.59;5125139;27;20199;-76
2022/05/09 10:40:52;;;;;;;5.78;2.03;;;;;;;25.05;21.90;95232.91;5123910;27;20622;-78
2022/05/09 10:43:27;;;;;;;4.10;2.00;;;;;;;25.07;20.87;95233.41;5123358;27;20195;-78
2022/05/09 10:45:55;;;;;;;5.88;2.08;;;;;;;25.24;20.87;95229.06;5126446;27;20278;-78
2022/05/09 10:48:34;;;;;;;10.23;2.60;;;;;;;25.42;21.50;95221.28;5124307;27;20725;-78
2022/05/09 10:51:10;;;;;;;9.10;2.20;;;;;;;25.22;21.45;95219.81;5126982;27;20187;-78
2022/05/09 10:53:43;;;;;;;18.67;2.17;;;;;;;25.18;20.48;95221.47;5128336;27;20577;-78
2022/05/09 10:56:16;;;;;;;5.72;1.92;;;;;;;25.33;20.32;95215.84;5125195;27;20192;-78
2022/05/09 10:58:52;;;;;;;14.45;3.55;;;;;;;25.57;20.07;95221.00;5122428;27;20719;-76
2022/05/09 11:01:25;;;;;;;4.55;2.25;;;;;;;25.75;19.39;95223.53;5119215;27;20211;-75
2022/05/09 11:03:56;;;;;;;11.63;2.60;;;;;;;26.06;19.67;95214.88;5121514;27;20203;-77
2022/05/09 11:06:39;;;;;;;3.80;1.98;;;;;;;26.08;19.03;95212.69;5123966;27;20200;-76
2022/05/09 11:09:21;;;;;;;9.65;2.80;;;;;;;26.07;19.44;95195.13;5123563;27;20625;-76
2022/05/09 11:12:06;;;;;;;17.35;2.95;;;;;;;26.22;18.55;95219.59;5120887;27;20563;-77
2022/05/09 11:14:46;;;;;;;10.93;2.45;;;;;;;26.39;19.03;95213.59;5121604;27;20192;-76
2022/05/09 11:17:26;;;;;;;4.88;2.25;;;;;;;26.40;19.36;95213.31;5126772;27;20187;-77
2022/05/09 11:20:08;;;;;;;29.75;4.75;;;;;;;26.68;19.86;95213.16;5124593;27;20230;-76
2022/05/09 11:22:40;;;;;;;6.60;2.08;;;;;;;26.91;19.35;95212.84;5120362;27;20212;-76
2022/05/09 11:25:22;;;;;;;3.13;1.92;;;;;;;27.03;19.04;95207.72;5121900;27;20279;-77
2022/05/09 11:28:08;;;;;;;21.02;3.15;;;;;;;27.13;18.80;95205.88;5122188;27;20226;-77
2022/05/09 11:30:40;;;;;;;5.93;2.05;;;;;;;27.29;18.98;95207.81;5122602;27;20253;-75
2022/05/09 11:33:33;;;;;;;5.55;2.22;;;;;;;27.13;19.27;95198.63;5121785;27;20210;-74
2022/05/09 11:36:07;;;;;;;20.40;3.15;;;;;;;27.21;19.23;95210.44;5120111;27;20283;-75
2022/05/09 11:38:43;;;;;;;7.65;2.25;;;;;;;27.34;18.48;95209.53;5124420;27;20227;-74
2022/05/09 11:41:29;;;;;;;9.02;2.50;;;;;;;27.49;18.27;95206.47;5121277;27;20702;-75
2022/05/09 11:44:10;;;;;;;6.95;1.92;;;;;;;27.54;17.91;95198.31;5122139;27;20204;-77
2022/05/09 11:46:52;;;;;;;6.50;2.45;;;;;;;27.63;18.31;95199.13;5120509;27;20252;-77
2022/05/09 11:49:53;;;;;;;18.38;3.60;;;;;;;27.90;17.64;95190.84;5121689;27;20191;-75
2022/05/09 11:52:27;;;;;;;31.92;5.97;;;;;;;27.89;17.68;95194.59;5121058;27;20188;-76
2022/05/09 11:54:57;;;;;;;5.47;2.25;;;;;;;28.15;17.42;95192.75;5122487;27;20203;-73
2022/05/09 11:57:29;;;;;;;5.70;1.90;;;;;;;28.24;17.11;95192.75;5120021;27;20194;-76